createdAt,value
2023-03-12T00:02:05.105Z,11.31
2023-03-12T00:06:19.762Z,11.37
2023-03-12T00:10:33.542Z,11.41
2023-03-12T00:14:45.857Z,11.17
2023-03-12T00:19:00.605Z,11.06
2023-03-12T00:23:13.508Z,10.95
2023-03-12T00:27:27.727Z,10.72
2023-03-12T00:31:42.805Z,10.30
2023-03-12T00:35:56.376Z,10.13
2023-03-12T00:40:11.866Z,10.06
2023-03-12T00:44:24.272Z,9.89
2023-03-12T00:48:36.942Z,9.84
2023-03-12T00:52:49.251Z,9.78
2023-03-12T00:57:01.731Z,9.81
2023-03-12T01:01:14.258Z,9.78
2023-03-12T01:05:27.187Z,9.77
2023-03-12T01:09:40.481Z,9.71
2023-03-12T01:13:53.058Z,9.77
2023-03-12T01:18:07.231Z,9.74
2023-03-12T01:22:19.550Z,9.81
2023-03-12T01:26:32.149Z,9.78
2023-03-12T01:30:46.206Z,9.81
2023-03-12T01:35:00.961Z,9.77
2023-03-12T01:39:15.466Z,9.69
2023-03-12T01:43:33.859Z,9.83
2023-03-12T01:47:48.146Z,9.90
2023-03-12T01:52:06.417Z,9.87
2023-03-12T01:56:28.611Z,9.84
2023-03-12T02:00:44.892Z,9.95
2023-03-12T02:05:11.979Z,9.84
2023-03-12T02:09:24.962Z,9.95
2023-03-12T02:13:39.551Z,9.97
2023-03-12T02:17:52.387Z,10.07
2023-03-12T02:22:06.139Z,10.03
2023-03-12T02:26:20.395Z,10.00
2023-03-12T02:30:37.029Z,9.83
2023-03-12T02:34:58.970Z,9.79
2023-03-12T02:39:12.898Z,9.99
2023-03-12T02:43:28.595Z,10.00
2023-03-12T02:47:41.862Z,10.00
2023-03-12T02:51:56.099Z,9.72
2023-03-12T02:56:10.956Z,9.89
2023-03-12T03:00:24.825Z,9.97
2023-03-12T03:04:38.502Z,9.54
2023-03-12T03:08:50.880Z,9.52
2023-03-12T03:13:03.297Z,9.75
2023-03-12T03:17:15.682Z,9.61
2023-03-12T03:21:28.008Z,9.37
2023-03-12T03:25:40.378Z,9.76
2023-03-12T03:29:52.776Z,9.60
2023-03-12T03:34:05.541Z,9.48
2023-03-12T03:38:18.289Z,9.37
2023-03-12T03:42:30.799Z,9.01
2023-03-12T03:46:45.237Z,8.81
2023-03-12T03:51:02.321Z,8.90
2023-03-12T03:55:17.326Z,8.92
2023-03-12T03:59:29.673Z,8.75
2023-03-12T04:03:44.418Z,8.64
2023-03-12T04:08:14.367Z,8.66
2023-03-12T04:12:26.878Z,8.53
2023-03-12T04:16:41.268Z,8.79
2023-03-12T04:20:54.153Z,8.69
2023-03-12T04:25:07.740Z,8.82
2023-03-12T04:29:20.763Z,8.64
2023-03-12T04:33:36.185Z,8.48
2023-03-12T04:37:49.014Z,8.77
2023-03-12T04:42:01.997Z,8.59
2023-03-12T04:46:14.484Z,8.48
2023-03-12T04:50:28.693Z,8.42
2023-03-12T04:54:41.403Z,8.59
2023-03-12T04:58:54.068Z,8.67
2023-03-12T05:03:08.735Z,8.59
2023-03-12T05:07:22.555Z,8.55
2023-03-12T05:11:35.408Z,8.52
2023-03-12T05:15:51.007Z,8.34
2023-03-12T05:20:06.581Z,8.33
2023-03-12T05:24:19.429Z,8.28
2023-03-12T05:28:32.125Z,8.27
2023-03-12T05:32:47.583Z,8.22
2023-03-12T05:37:09.851Z,8.29
2023-03-12T05:41:30.001Z,8.22
2023-03-12T05:45:49.126Z,8.18
2023-03-12T05:50:01.708Z,8.25
2023-03-12T05:54:16.789Z,8.46
2023-03-12T05:58:32.811Z,8.57
2023-03-12T06:02:45.333Z,8.68
2023-03-12T06:06:58.094Z,8.75
2023-03-12T06:11:13.453Z,8.75
2023-03-12T06:15:26.101Z,8.84
2023-03-12T06:19:38.705Z,9.02
2023-03-12T06:23:52.250Z,9.32
2023-03-12T06:28:11.125Z,9.71
2023-03-12T06:32:23.750Z,10.02
2023-03-12T06:36:36.560Z,10.37
2023-03-12T06:41:00.452Z,10.44
2023-03-12T06:45:12.869Z,10.57
2023-03-12T06:49:25.869Z,10.79
2023-03-12T06:53:41.785Z,11.19
2023-03-12T06:57:54.555Z,11.19
2023-03-12T07:02:07.126Z,10.98
2023-03-12T07:06:23.922Z,11.23
2023-03-12T07:10:36.316Z,11.44
2023-03-12T07:14:48.674Z,11.63
2023-03-12T07:19:02.497Z,11.88
2023-03-12T07:23:15.444Z,12.14
2023-03-12T07:27:28.484Z,12.20
2023-03-12T07:31:40.928Z,12.08
2023-03-12T07:35:53.410Z,12.09
2023-03-12T07:40:07.770Z,12.37
2023-03-12T07:44:20.267Z,12.83
2023-03-12T07:48:32.600Z,12.92
2023-03-12T07:52:45.585Z,13.14
2023-03-12T07:56:58.164Z,13.45
2023-03-12T08:01:10.722Z,13.86
2023-03-12T08:05:25.140Z,13.90
2023-03-12T08:09:39.026Z,13.94
2023-03-12T08:13:51.360Z,14.08
2023-03-12T08:18:03.785Z,14.41
2023-03-12T08:22:16.383Z,14.35
2023-03-12T08:26:28.724Z,14.41
2023-03-12T08:30:46.179Z,14.70
2023-03-12T08:34:59.797Z,15.11
2023-03-12T08:39:12.136Z,15.28
2023-03-12T08:43:25.200Z,15.02
2023-03-12T08:47:40.076Z,15.07
2023-03-12T08:51:52.764Z,15.38
2023-03-12T08:56:06.412Z,15.40
2023-03-12T09:00:19.276Z,15.21
2023-03-12T09:04:31.667Z,15.72
2023-03-12T09:08:45.383Z,16.08
2023-03-12T09:12:57.669Z,15.92
2023-03-12T09:17:10.079Z,15.89
2023-03-12T09:21:22.462Z,15.81
2023-03-12T09:25:34.758Z,16.03
2023-03-12T09:29:59.518Z,16.24
2023-03-12T09:34:13.026Z,16.65
2023-03-12T09:38:26.167Z,16.58
2023-03-12T09:42:52.435Z,16.83
2023-03-12T09:47:16.720Z,16.49
2023-03-12T09:51:35.562Z,16.48
2023-03-12T09:55:51.822Z,17.45
2023-03-12T10:00:07.586Z,17.26
2023-03-12T10:04:58.243Z,16.87
2023-03-12T10:09:39.237Z,16.89
2023-03-12T10:13:59.931Z,16.89
2023-03-12T10:18:25.216Z,17.19
2023-03-12T10:22:56.090Z,17.16
2023-03-12T10:27:19.162Z,17.03
2023-03-12T10:31:56.074Z,17.40
2023-03-12T10:36:21.182Z,17.35
2023-03-12T10:40:36.059Z,17.80
2023-03-12T10:44:53.059Z,17.84
2023-03-12T10:49:23.638Z,18.63
2023-03-12T10:53:48.486Z,19.03
2023-03-12T10:58:01.006Z,19.39
2023-03-12T11:02:35.437Z,18.68
2023-03-12T11:07:12.383Z,17.94
2023-03-12T11:11:33.377Z,18.35
2023-03-12T11:15:45.732Z,18.84
2023-03-12T11:19:58.160Z,18.88
2023-03-12T11:24:15.242Z,18.94
2023-03-12T11:28:43.815Z,18.78
2023-03-12T11:32:58.321Z,18.05
2023-03-12T11:37:55.346Z,17.82
2023-03-12T11:42:36.797Z,18.98
2023-03-12T11:47:16.864Z,18.93
2023-03-12T11:51:55.984Z,19.08
2023-03-12T11:56:14.308Z,20.11
2023-03-12T12:00:57.085Z,20.66
2023-03-12T12:05:32.652Z,21.81
2023-03-12T12:10:10.133Z,23.59
2023-03-12T12:14:45.650Z,23.19
2023-03-12T12:19:34.462Z,22.63
2023-03-12T12:23:58.898Z,21.14
2023-03-12T12:28:26.395Z,19.63
2023-03-12T12:33:17.492Z,19.16
2023-03-12T12:37:42.035Z,19.54
2023-03-12T12:41:58.642Z,19.53
2023-03-12T12:46:29.327Z,18.59
2023-03-12T12:50:44.417Z,18.43
2023-03-12T12:55:07.941Z,18.44
2023-03-12T12:59:43.434Z,18.86
2023-03-12T13:04:01.833Z,18.63
2023-03-12T13:08:42.537Z,18.96
2023-03-12T13:12:57.048Z,18.80
2023-03-12T13:17:27.670Z,18.63
2023-03-12T13:21:54.476Z,19.02
2023-03-12T13:26:47.858Z,18.34
2023-03-12T13:31:19.917Z,18.41
2023-03-12T13:35:37.123Z,18.81
2023-03-12T13:39:49.824Z,18.22
2023-03-12T13:44:25.440Z,17.98
2023-03-12T13:48:46.223Z,18.26
2023-03-12T13:53:09.541Z,18.67
2023-03-12T13:57:40.484Z,18.55
2023-03-12T14:01:59.393Z,17.90
2023-03-12T14:06:23.747Z,17.85
2023-03-12T14:11:03.724Z,18.16
2023-03-12T14:15:16.778Z,18.22
2023-03-12T14:19:35.807Z,18.19
2023-03-12T14:24:09.012Z,17.76
2023-03-12T14:28:23.603Z,17.71
2023-03-12T14:32:37.829Z,17.48
2023-03-12T14:36:59.488Z,17.92
2023-03-12T14:41:29.502Z,17.64
2023-03-12T14:45:41.848Z,17.49
2023-03-12T14:49:57.347Z,17.64
2023-03-12T14:54:19.622Z,17.42
2023-03-12T14:58:33.444Z,17.09
2023-03-12T15:02:46.872Z,16.85
2023-03-12T15:07:04.852Z,16.50
2023-03-12T15:11:23.424Z,16.52
2023-03-12T15:15:43.117Z,16.38
2023-03-12T15:20:00.392Z,16.23
2023-03-12T15:24:14.343Z,16.01
2023-03-12T15:28:29.095Z,15.81
2023-03-12T15:32:41.553Z,15.67
2023-03-12T15:36:56.643Z,15.29
2023-03-12T15:41:12.619Z,15.22
2023-03-12T15:45:45.519Z,15.01
2023-03-12T15:50:04.968Z,14.87
2023-03-12T15:54:17.244Z,14.37
2023-03-12T15:58:42.759Z,14.00
2023-03-12T16:02:59.233Z,13.97
2023-03-12T16:07:12.592Z,13.83
2023-03-12T16:11:27.400Z,13.63
2023-03-12T16:15:40.485Z,13.53
2023-03-12T16:19:52.764Z,13.27
2023-03-12T16:24:18.437Z,13.06
2023-03-12T16:28:36.274Z,12.86
2023-03-12T16:32:48.823Z,12.75
2023-03-12T16:37:01.189Z,12.55
2023-03-12T16:41:16.709Z,12.36
2023-03-12T16:45:31.962Z,12.20
2023-03-12T16:49:44.752Z,12.15
2023-03-12T16:54:09.497Z,11.98
2023-03-12T16:58:24.926Z,11.82
2023-03-12T17:02:37.198Z,11.73
2023-03-12T17:06:49.482Z,11.72
2023-03-12T17:11:01.920Z,11.55
2023-03-12T17:15:30.737Z,11.43
2023-03-12T17:19:45.460Z,11.32
2023-03-12T17:23:58.105Z,11.22
2023-03-12T17:28:11.764Z,11.13
2023-03-12T17:32:24.386Z,11.01
2023-03-12T17:36:38.125Z,10.96
2023-03-12T17:40:50.671Z,10.78
2023-03-12T17:45:04.561Z,10.72
2023-03-12T17:49:16.817Z,10.40
2023-03-12T17:53:29.248Z,10.25
2023-03-12T17:57:44.834Z,10.10
2023-03-12T18:01:58.398Z,10.08
2023-03-12T18:06:12.303Z,9.80
2023-03-12T18:10:24.742Z,9.69
2023-03-12T18:14:39.757Z,9.51
2023-03-12T18:18:52.940Z,9.57
2023-03-12T18:23:05.423Z,9.58
2023-03-12T18:27:26.602Z,8.92
2023-03-12T18:31:39.103Z,8.50
2023-03-12T18:35:54.538Z,7.93
2023-03-12T18:40:10.234Z,7.76
2023-03-12T18:44:22.646Z,7.73
2023-03-12T18:48:36.016Z,7.84
2023-03-12T18:52:48.394Z,7.95
2023-03-12T18:57:01.509Z,8.30
2023-03-12T19:01:14.230Z,8.35
2023-03-12T19:05:29.726Z,7.29
2023-03-12T19:09:45.317Z,8.06
2023-03-12T19:13:58.143Z,8.64
2023-03-12T19:18:10.497Z,8.71
2023-03-12T19:22:25.863Z,8.79
2023-03-12T19:26:38.414Z,8.79
2023-03-12T19:31:01.079Z,8.85
2023-03-12T19:35:15.062Z,8.83
2023-03-12T19:39:27.478Z,8.90
2023-03-12T19:43:41.067Z,8.93
2023-03-12T19:47:56.600Z,8.80
2023-03-12T19:52:12.121Z,8.78
2023-03-12T19:56:24.496Z,8.75
2023-03-12T20:00:42.078Z,8.81
2023-03-12T20:04:56.074Z,8.50
2023-03-12T20:09:09.896Z,8.35
2023-03-12T20:13:22.454Z,8.54
2023-03-12T20:17:34.929Z,8.33
2023-03-12T20:21:48.528Z,7.97
2023-03-12T20:26:00.888Z,7.97
2023-03-12T20:30:13.728Z,7.89
2023-03-12T20:34:26.189Z,7.70
2023-03-12T20:38:38.613Z,7.94
2023-03-12T20:42:52.426Z,7.68
2023-03-12T20:47:06.278Z,7.31
2023-03-12T20:51:18.816Z,7.29
2023-03-12T20:55:31.212Z,7.45
2023-03-12T20:59:43.818Z,7.76
2023-03-12T21:03:59.318Z,8.05
2023-03-12T21:08:11.729Z,7.28
2023-03-12T21:12:24.160Z,8.02
2023-03-12T21:16:37.284Z,7.77
2023-03-12T21:20:49.773Z,7.34
2023-03-12T21:25:02.349Z,7.69
2023-03-12T21:29:14.824Z,7.74
2023-03-12T21:33:27.114Z,7.57
2023-03-12T21:37:40.472Z,7.84
2023-03-12T21:41:52.804Z,7.55
2023-03-12T21:46:11.215Z,7.14
2023-03-12T21:50:23.722Z,7.03
2023-03-12T21:54:37.198Z,7.60
2023-03-12T21:58:50.264Z,7.29
2023-03-12T22:03:02.558Z,7.29
2023-03-12T22:07:16.258Z,7.19
2023-03-12T22:11:28.625Z,6.95
2023-03-12T22:15:41.021Z,7.50
2023-03-12T22:19:53.490Z,7.10
2023-03-12T22:24:07.136Z,6.86
2023-03-12T22:28:20.025Z,6.75
2023-03-12T22:32:34.949Z,6.65
2023-03-12T22:36:47.166Z,6.94
2023-03-12T22:40:59.575Z,6.82
2023-03-12T22:45:11.974Z,7.25
2023-03-12T22:49:25.322Z,7.62
2023-03-12T22:53:37.599Z,7.22
2023-03-12T22:57:50.023Z,6.96
2023-03-12T23:02:02.495Z,6.83
2023-03-12T23:06:26.290Z,6.66
2023-03-12T23:10:39.194Z,6.95
2023-03-12T23:14:51.698Z,7.07
2023-03-12T23:19:07.243Z,6.80
2023-03-12T23:23:19.901Z,6.41
2023-03-12T23:27:32.161Z,6.49
2023-03-12T23:31:44.695Z,6.45
2023-03-12T23:36:01.300Z,6.57
2023-03-12T23:40:17.090Z,6.33
2023-03-12T23:44:32.913Z,6.24
2023-03-12T23:48:45.954Z,6.15
2023-03-12T23:52:59.216Z,5.88
2023-03-12T23:57:13.295Z,6.04
